createdAt,value
2023-11-09T00:00:04.754Z,97346.28
2023-11-09T00:02:32.796Z,97359.75
2023-11-09T00:05:01.004Z,97357.06
2023-11-09T00:07:29.815Z,97347.22
2023-11-09T00:09:59.016Z,97352.63
2023-11-09T00:12:27.082Z,97342.84
2023-11-09T00:14:56.504Z,97348.22
2023-11-09T00:17:24.652Z,97338.31
2023-11-09T00:19:52.813Z,97337.56
2023-11-09T00:22:21.814Z,97338.41
2023-11-09T00:24:49.913Z,97335.72
2023-11-09T00:27:20.771Z,97327.75
2023-11-09T00:29:48.906Z,97316.84
2023-11-09T00:32:18.382Z,97314.28
2023-11-09T00:34:46.615Z,97311.59
2023-11-09T00:37:14.877Z,97316.97
2023-11-09T00:39:42.927Z,97312.59
2023-11-09T00:42:11.016Z,97319.78
2023-11-09T00:44:39.053Z,97317.97
2023-11-09T00:47:07.601Z,97308.16
2023-11-09T00:49:37.034Z,97302.75
2023-11-09T00:52:05.663Z,97294.69
2023-11-09T00:54:33.762Z,97290.28
2023-11-09T00:57:01.784Z,97290.28
2023-11-09T00:59:29.876Z,97284.03
2023-11-09T01:01:57.918Z,97281.47
2023-11-09T01:04:26.282Z,97278.78
2023-11-09T01:06:56.041Z,97280.47
2023-11-09T01:09:25.089Z,97281.47
2023-11-09T01:11:53.151Z,97288.69
2023-11-09T01:14:21.640Z,97279.72
2023-11-09T01:16:50.349Z,97278.84
2023-11-09T01:19:18.682Z,97277.03
2023-11-09T01:21:46.974Z,97270.78
2023-11-09T01:24:18.778Z,97265.41
2023-11-09T01:26:46.889Z,97249.38
2023-11-09T01:29:14.961Z,97257.44
2023-11-09T01:31:44.203Z,97249.38
2023-11-09T01:34:15.318Z,97236.88
2023-11-09T01:36:43.939Z,97242.28
2023-11-09T01:39:11.797Z,97237.72
2023-11-09T01:41:43.613Z,97245.03
2023-11-09T01:44:12.056Z,97244.06
2023-11-09T01:46:42.197Z,97230.59
2023-11-09T01:49:10.759Z,97235.13
2023-11-09T01:51:38.902Z,97232.56
2023-11-09T01:54:07.260Z,97230.72
2023-11-09T01:56:36.078Z,97232.56
2023-11-09T01:59:05.808Z,97229.84
2023-11-09T02:01:34.671Z,97229.84
2023-11-09T02:04:03.096Z,97230.81
2023-11-09T02:06:31.548Z,97222.75
2023-11-09T02:08:59.720Z,97227.28
2023-11-09T02:11:27.793Z,97226.28
2023-11-09T02:13:55.886Z,97213.81
2023-11-09T02:16:25.379Z,97220.91
2023-11-09T02:18:53.598Z,97222.75
2023-11-09T02:21:27.981Z,97218.34
2023-11-09T02:23:56.141Z,97210.25
2023-11-09T02:26:25.593Z,97208.53
2023-11-09T02:28:54.688Z,97213.91
2023-11-09T02:31:22.767Z,97214.78
2023-11-09T02:33:50.886Z,97205.75
2023-11-09T02:36:19.976Z,97195.94
2023-11-09T02:38:48.041Z,97194.22
2023-11-09T02:41:16.146Z,97194.22
2023-11-09T02:43:45.635Z,97201.44
2023-11-09T02:46:13.820Z,97190.66
2023-11-09T02:48:42.340Z,97190.66
2023-11-09T02:51:10.670Z,97185.28
2023-11-09T02:53:40.190Z,97185.28
2023-11-09T02:56:08.767Z,97189.69
2023-11-09T02:58:37.003Z,97177.22
2023-11-09T03:01:07.281Z,97178.16
2023-11-09T03:03:35.633Z,97176.34
2023-11-09T03:06:03.722Z,97171.81
2023-11-09T03:08:32.215Z,97169.25
2023-11-09T03:11:00.248Z,97175.47
2023-11-09T03:13:28.728Z,97169.25
2023-11-09T03:15:57.085Z,97161.28
2023-11-09T03:18:26.879Z,97158.50
2023-11-09T03:20:55.750Z,97161.28
2023-11-09T03:23:24.838Z,97161.28
2023-11-09T03:25:52.997Z,97156.75
2023-11-09T03:28:22.313Z,97155.88
2023-11-09T03:30:50.444Z,97149.66
2023-11-09T03:33:18.547Z,97149.66
2023-11-09T03:35:48.044Z,97150.50
2023-11-09T03:38:16.087Z,97143.41
2023-11-09T03:40:44.170Z,97142.56
2023-11-09T03:43:12.282Z,97134.34
2023-11-09T03:45:40.521Z,97129.97
2023-11-09T03:48:08.632Z,97130.81
2023-11-09T03:50:36.786Z,97134.47
2023-11-09T03:53:06.200Z,97133.53
2023-11-09T03:55:34.493Z,97128.13
2023-11-09T03:58:02.633Z,97128.97
2023-11-09T04:00:30.708Z,97128.97
2023-11-09T04:02:58.907Z,97119.94
2023-11-09T04:05:26.942Z,97125.31
2023-11-09T04:07:55.063Z,97111.88
2023-11-09T04:10:24.653Z,97122.63
2023-11-09T04:12:52.712Z,97109.16
2023-11-09T04:15:20.967Z,97107.34
2023-11-09T04:17:49.040Z,97107.34
2023-11-09T04:20:17.969Z,97110.03
2023-11-09T04:22:46.082Z,97107.34
2023-11-09T04:25:14.303Z,97104.66
2023-11-09T04:27:44.359Z,97098.41
2023-11-09T04:30:17.222Z,97099.28
2023-11-09T04:32:45.505Z,97093.03
2023-11-09T04:35:15.963Z,97089.34
2023-11-09T04:37:45.818Z,97094.72
2023-11-09T04:40:17.003Z,97092.03
2023-11-09T04:42:48.277Z,97091.19
2023-11-09T04:45:17.873Z,97087.63
2023-11-09T04:47:49.056Z,97091.19
2023-11-09T04:50:19.184Z,97085.81
2023-11-09T04:52:53.478Z,97083.13
2023-11-09T04:55:33.330Z,97077.75
2023-11-09T04:58:21.668Z,97073.31
2023-11-09T05:01:07.118Z,97080.53
2023-11-09T05:03:52.751Z,97080.53
2023-11-09T05:06:38.425Z,97079.69
2023-11-09T05:09:07.593Z,97066.22
2023-11-09T05:11:35.630Z,97059.97
2023-11-09T05:14:05.135Z,97055.47
2023-11-09T05:16:33.212Z,97065.25
2023-11-09T05:19:01.327Z,97069.53
2023-11-09T05:21:29.379Z,97067.47
2023-11-09T05:23:57.413Z,97065.63
2023-11-09T05:26:26.982Z,97066.28
2023-11-09T05:28:56.252Z,97065.22
2023-11-09T05:31:26.016Z,97064.97
2023-11-09T05:33:55.159Z,97062.91
2023-11-09T05:36:23.324Z,97062.78
2023-11-09T05:38:51.340Z,97056.41
2023-11-09T05:41:19.370Z,97057.41
2023-11-09T05:43:47.435Z,97051.63
2023-11-09T05:46:15.503Z,97052.19
2023-11-09T05:48:45.040Z,97051.91
2023-11-09T05:51:13.122Z,97050.63
2023-11-09T05:53:41.160Z,97045.16
2023-11-09T05:56:09.869Z,97052.03
2023-11-09T05:58:38.424Z,97049.81
2023-11-09T06:01:06.745Z,97051.31
2023-11-09T06:03:34.963Z,97053.69
2023-11-09T06:06:04.698Z,97059.47
2023-11-09T06:08:32.804Z,97051.03
2023-11-09T06:11:00.814Z,97053.38
2023-11-09T06:13:28.885Z,97046.78
2023-11-09T06:15:58.738Z,97042.25
2023-11-09T06:18:27.710Z,97042.88
2023-11-09T06:20:56.973Z,97036.41
2023-11-09T06:23:26.381Z,97050.72
2023-11-09T06:25:54.538Z,97054.03
2023-11-09T06:28:23.339Z,97040.44
2023-11-09T06:30:51.948Z,97043.88
2023-11-09T06:33:20.036Z,97043.75
2023-11-09T06:35:49.251Z,97047.09
2023-11-09T06:38:20.383Z,97037.06
2023-11-09T06:40:49.934Z,97045.00
2023-11-09T06:43:18.737Z,97036.66
2023-11-09T06:45:47.667Z,97047.22
2023-11-09T06:48:16.330Z,97033.50
2023-11-09T06:50:44.518Z,97036.94
2023-11-09T06:53:18.994Z,97040.22
2023-11-09T06:55:47.177Z,97025.78
2023-11-09T06:58:16.652Z,97027.63
2023-11-09T07:00:44.643Z,97025.66
2023-11-09T07:03:12.680Z,97019.31
2023-11-09T07:05:41.182Z,97023.72
2023-11-09T07:08:09.650Z,97017.34
2023-11-09T07:10:38.508Z,97011.84
2023-11-09T07:13:06.909Z,97015.41
2023-11-09T07:15:36.503Z,97020.66
2023-11-09T07:18:05.694Z,97002.66
2023-11-09T07:20:34.586Z,97006.13
2023-11-09T07:23:08.289Z,97002.53
2023-11-09T07:25:38.152Z,97009.56
2023-11-09T07:28:09.678Z,97000.47
2023-11-09T07:30:39.463Z,96996.81
2023-11-09T07:33:07.567Z,96986.88
2023-11-09T07:35:36.981Z,97004.75
2023-11-09T07:38:05.483Z,96999.38
2023-11-09T07:40:34.690Z,96997.56
2023-11-09T07:43:02.858Z,96993.00
2023-11-09T07:45:30.921Z,96988.47
2023-11-09T07:48:00.453Z,96981.25
2023-11-09T07:50:29.139Z,96974.03
2023-11-09T07:52:57.204Z,96982.94
2023-11-09T07:55:25.314Z,96987.50
2023-11-09T07:57:54.144Z,96981.97
2023-11-09T08:00:24.393Z,96978.41
2023-11-09T08:02:52.581Z,96973.88
2023-11-09T08:05:23.815Z,96971.19
2023-11-09T08:07:53.375Z,96966.66
2023-11-09T08:10:21.544Z,96969.38
2023-11-09T08:12:49.886Z,96963.97
2023-11-09T08:15:19.701Z,96962.97
2023-11-09T08:17:48.747Z,96963.84
2023-11-09T08:20:17.425Z,96965.66
2023-11-09T08:22:47.584Z,96970.19
2023-11-09T08:25:16.356Z,96966.53
2023-11-09T08:27:44.521Z,96967.50
2023-11-09T08:30:13.254Z,96981.84
2023-11-09T08:32:43.052Z,96971.94
2023-11-09T08:35:12.154Z,96969.22
2023-11-09T08:37:39.787Z,96953.94
2023-11-09T08:40:17.968Z,96958.44
2023-11-09T08:42:47.776Z,96946.81
2023-11-09T08:45:18.710Z,96953.06
2023-11-09T08:47:47.014Z,96948.53
2023-11-09T08:50:15.140Z,96947.66
2023-11-09T08:52:43.360Z,96942.41
2023-11-09T08:55:13.332Z,96930.75
2023-11-09T08:57:41.831Z,96933.47
2023-11-09T09:00:13.145Z,96931.72
2023-11-09T09:02:46.420Z,96923.63
2023-11-09T09:05:16.533Z,96914.72
2023-11-09T09:07:44.992Z,96913.00
2023-11-09T09:10:17.235Z,96920.22
2023-11-09T09:12:47.004Z,96909.44
2023-11-09T09:15:17.257Z,96910.44
2023-11-09T09:17:46.752Z,96916.69
2023-11-09T09:20:16.849Z,96914.00
2023-11-09T09:22:46.310Z,96905.91
2023-11-09T09:25:17.810Z,96901.47
2023-11-09T09:27:47.413Z,96903.22
2023-11-09T09:30:18.796Z,96910.44
2023-11-09T09:32:48.000Z,96899.66
2023-11-09T09:35:16.765Z,96896.09
2023-11-09T09:37:47.077Z,96888.00
2023-11-09T09:40:20.871Z,96891.56
2023-11-09T09:42:51.285Z,96890.69
2023-11-09T09:45:20.586Z,96887.13
2023-11-09T09:47:49.843Z,96878.22
2023-11-09T09:50:18.537Z,96860.19
2023-11-09T09:52:48.389Z,96870.13
2023-11-09T09:55:19.527Z,96868.41
2023-11-09T09:57:48.505Z,96868.41
2023-11-09T10:00:24.647Z,96857.63
2023-11-09T10:02:53.415Z,96858.72
2023-11-09T10:05:22.150Z,96854.19
2023-11-09T10:08:04.029Z,96849.81
2023-11-09T10:10:36.305Z,96845.25
2023-11-09T10:13:07.546Z,96838.13
2023-11-09T10:15:35.939Z,96839.09
2023-11-09T10:18:04.154Z,96841.06
2023-11-09T10:20:33.334Z,96838.38
2023-11-09T10:23:03.825Z,96824.06
2023-11-09T10:25:37.529Z,96833.09
2023-11-09T10:28:09.276Z,96816.94
2023-11-09T10:30:38.824Z,96828.59
2023-11-09T10:33:10.213Z,96815.97
2023-11-09T10:35:38.643Z,96820.50
2023-11-09T10:38:09.438Z,96815.09
2023-11-09T10:40:44.525Z,96808.72
2023-11-09T10:43:34.682Z,96789.84
2023-11-09T10:46:05.849Z,96784.47
2023-11-09T10:48:36.367Z,96783.63
2023-11-09T10:51:04.718Z,96789.03
2023-11-09T10:53:33.800Z,96773.69
2023-11-09T10:56:04.998Z,96781.78
2023-11-09T10:58:34.667Z,96774.69
2023-11-09T11:01:07.440Z,96762.19
2023-11-09T11:03:37.565Z,96768.44
2023-11-09T11:06:06.630Z,96765.75
2023-11-09T11:08:37.412Z,96758.53
2023-11-09T11:11:07.228Z,96754.97
2023-11-09T11:13:36.860Z,96761.22
2023-11-09T11:16:33.099Z,96767.47
2023-11-09T11:19:16.647Z,96775.56
2023-11-09T11:21:56.691Z,96758.38
2023-11-09T11:24:43.795Z,96764.63
2023-11-09T11:27:19.442Z,96750.31
2023-11-09T11:29:50.286Z,96753.84
2023-11-09T11:32:23.130Z,96739.38
2023-11-09T11:34:55.964Z,96758.19
2023-11-09T11:37:26.083Z,96743.81
2023-11-09T11:39:55.218Z,96745.53
2023-11-09T11:42:26.604Z,96744.56
2023-11-09T11:44:58.313Z,96750.81
2023-11-09T11:47:30.130Z,96751.66
2023-11-09T11:50:00.629Z,96736.34
2023-11-09T11:52:31.393Z,96739.91
2023-11-09T11:55:01.743Z,96733.50
2023-11-09T11:57:33.164Z,96737.94
2023-11-09T12:00:10.047Z,96733.41
2023-11-09T12:02:38.924Z,96747.72
2023-11-09T12:05:08.616Z,96737.78
2023-11-09T12:07:36.935Z,96738.66
2023-11-09T12:10:07.252Z,96747.59
2023-11-09T12:12:37.589Z,96732.41
2023-11-09T12:15:07.652Z,96738.66
2023-11-09T12:17:35.839Z,96725.19
2023-11-09T12:20:12.269Z,96729.56
2023-11-09T12:22:40.624Z,96729.56
2023-11-09T12:25:13.200Z,96734.13
2023-11-09T12:27:43.181Z,96717.97
2023-11-09T12:30:12.421Z,96711.72
2023-11-09T12:32:42.017Z,96698.22
2023-11-09T12:35:15.876Z,96688.31
2023-11-09T12:37:44.133Z,96695.53
2023-11-09T12:40:13.176Z,96704.47
2023-11-09T12:42:43.794Z,96690.16
2023-11-09T12:45:12.483Z,96688.41
2023-11-09T12:47:41.416Z,96691.13
2023-11-09T12:50:17.839Z,96682.19
2023-11-09T12:52:46.284Z,96681.34
2023-11-09T12:55:15.642Z,96674.13
2023-11-09T12:57:46.212Z,96668.72
2023-11-09T13:00:24.903Z,96667.84
2023-11-09T13:02:57.903Z,96667.84
2023-11-09T13:05:33.129Z,96661.59
2023-11-09T13:08:09.620Z,96660.88
2023-11-09T13:10:40.228Z,96652.78
2023-11-09T13:13:22.701Z,96651.94
2023-11-09T13:15:50.650Z,96649.25
2023-11-09T13:18:27.479Z,96651.09
2023-11-09T13:20:56.288Z,96652.94
2023-11-09T13:23:33.791Z,96647.69
2023-11-09T13:26:03.726Z,96647.75
2023-11-09T13:28:33.203Z,96647.75
2023-11-09T13:31:07.279Z,96638.94
2023-11-09T13:33:38.762Z,96648.03
2023-11-09T13:36:10.693Z,96650.88
2023-11-09T13:38:47.031Z,96639.22
2023-11-09T13:41:18.407Z,96626.88
2023-11-09T13:44:00.608Z,96631.38
2023-11-09T13:46:29.249Z,96637.78
2023-11-09T13:49:07.143Z,96620.03
2023-11-09T13:51:35.297Z,96630.06
2023-11-09T13:54:24.781Z,96619.31
2023-11-09T13:57:10.385Z,96625.56
2023-11-09T13:59:43.857Z,96613.06
2023-11-09T14:02:17.507Z,96615.03
2023-11-09T14:04:47.956Z,96609.63
2023-11-09T14:07:17.817Z,96607.94
2023-11-09T14:09:45.931Z,96608.81
2023-11-09T14:12:34.586Z,96602.56
2023-11-09T14:15:15.017Z,96607.94
2023-11-09T14:17:45.741Z,96604.53
2023-11-09T14:20:21.750Z,96609.03
2023-11-09T14:22:49.969Z,96601.97
2023-11-09T14:25:22.958Z,96603.78
2023-11-09T14:27:51.811Z,96586.78
2023-11-09T14:30:29.747Z,96594.84
2023-11-09T14:33:01.931Z,96598.53
2023-11-09T14:35:31.628Z,96593.16
2023-11-09T14:38:02.434Z,96584.22
2023-11-09T14:40:31.287Z,96597.69
2023-11-09T14:43:07.578Z,96584.34
2023-11-09T14:45:42.946Z,96578.09
2023-11-09T14:48:12.521Z,96585.31
2023-11-09T14:50:41.356Z,96590.00
2023-11-09T14:53:22.785Z,96580.06
2023-11-09T14:55:58.408Z,96580.06
2023-11-09T14:58:32.002Z,96586.47
2023-11-09T15:01:03.741Z,96579.34
2023-11-09T15:03:32.968Z,96575.78
2023-11-09T15:06:10.419Z,96579.50
2023-11-09T15:08:38.961Z,96572.28
2023-11-09T15:11:11.983Z,96566.16
2023-11-09T15:13:40.429Z,96564.44
2023-11-09T15:16:10.317Z,96574.34
2023-11-09T15:18:38.704Z,96568.97
2023-11-09T15:21:11.197Z,96565.44
2023-11-09T15:23:39.418Z,96561.03
2023-11-09T15:26:08.213Z,96556.50
2023-11-09T15:28:36.406Z,96551.25
2023-11-09T15:31:06.650Z,96561.03
2023-11-09T15:33:36.432Z,96552.94
2023-11-09T15:36:05.254Z,96557.47
2023-11-09T15:38:33.685Z,96563.84
2023-11-09T15:41:18.360Z,96558.47
2023-11-09T15:43:51.267Z,96555.78
2023-11-09T15:46:19.428Z,96544.13
2023-11-09T15:48:49.427Z,96547.69
2023-11-09T15:51:18.618Z,96544.13
2023-11-09T15:53:46.843Z,96535.19
2023-11-09T15:56:16.697Z,96554.03
2023-11-09T15:58:49.482Z,96534.38
2023-11-09T16:01:20.641Z,96533.50
2023-11-09T16:03:52.851Z,96530.81
2023-11-09T16:06:21.002Z,96528.13
2023-11-09T16:08:51.392Z,96538.03
2023-11-09T16:11:19.546Z,96518.31
2023-11-09T16:13:47.679Z,96531.78
2023-11-09T16:16:16.847Z,96538.03
2023-11-09T16:18:45.031Z,96534.47
2023-11-09T16:21:14.641Z,96531.78
2023-11-09T16:23:42.942Z,96531.78
2023-11-09T16:26:12.605Z,96526.41
2023-11-09T16:28:47.160Z,96528.13
2023-11-09T16:31:15.299Z,96525.44
2023-11-09T16:33:44.109Z,96526.28
2023-11-09T16:36:14.925Z,96525.44
2023-11-09T16:38:44.585Z,96520.91
2023-11-09T16:41:12.687Z,96519.03
2023-11-09T16:43:40.794Z,96520.91
2023-11-09T16:46:10.677Z,96525.28
2023-11-09T16:48:40.231Z,96530.66
2023-11-09T16:51:11.374Z,96530.66
2023-11-09T16:53:39.768Z,96525.28
2023-11-09T16:56:10.214Z,96532.41
2023-11-09T16:58:38.414Z,96519.91
2023-11-09T17:01:08.747Z,96525.28
2023-11-09T17:03:37.077Z,96524.31
2023-11-09T17:06:07.502Z,96523.44
2023-11-09T17:08:36.339Z,96531.53
2023-11-09T17:11:04.605Z,96527.97
2023-11-09T17:13:34.978Z,96531.53
2023-11-09T17:16:03.419Z,96523.44
2023-11-09T17:18:32.058Z,96523.44
2023-11-09T17:21:02.614Z,96523.44
2023-11-09T17:23:31.781Z,96523.44
2023-11-09T17:26:01.447Z,96529.69
2023-11-09T17:28:32.268Z,96527.97
2023-11-09T17:31:01.858Z,96510.97
2023-11-09T17:33:29.991Z,96522.59
2023-11-09T17:35:58.108Z,96512.69
2023-11-09T17:38:27.251Z,96516.25
2023-11-09T17:40:55.563Z,96513.53
2023-11-09T17:43:23.779Z,96526.16
2023-11-09T17:45:51.943Z,96521.63
2023-11-09T17:48:21.449Z,96509.00
2023-11-09T17:50:49.504Z,96509.13
2023-11-09T17:53:21.282Z,96505.47
2023-11-09T17:55:49.663Z,96495.66
2023-11-09T17:58:18.200Z,96514.38
2023-11-09T18:00:46.412Z,96503.75
2023-11-09T18:03:16.297Z,96508.16
2023-11-09T18:05:45.895Z,96505.47
2023-11-09T18:08:14.523Z,96506.28
2023-11-09T18:10:43.073Z,96505.47
2023-11-09T18:13:11.255Z,96500.91
2023-11-09T18:15:41.216Z,96500.81
2023-11-09T18:18:09.491Z,96491.00
2023-11-09T18:20:37.832Z,96485.59
2023-11-09T18:23:07.734Z,96491.84
2023-11-09T18:25:36.107Z,96482.06
2023-11-09T18:28:04.661Z,96484.75
2023-11-09T18:30:32.699Z,96481.22
2023-11-09T18:33:01.786Z,96474.97
2023-11-09T18:35:29.964Z,96469.59
2023-11-09T18:37:58.200Z,96474.97
2023-11-09T18:40:29.389Z,96472.28
2023-11-09T18:42:57.512Z,96462.38
2023-11-09T18:45:26.004Z,96457.00
2023-11-09T18:47:54.152Z,96453.44
2023-11-09T18:52:53.770Z,96445.34
2023-11-09T18:55:21.850Z,96435.44
2023-11-09T18:57:51.311Z,96442.66
2023-11-09T19:00:19.851Z,96443.53
2023-11-09T19:05:19.075Z,96436.41
2023-11-09T19:07:47.208Z,96434.72
2023-11-09T19:10:15.533Z,96439.38
2023-11-09T19:12:44.010Z,96447.31
2023-11-09T19:15:13.662Z,96430.31
2023-11-09T19:17:42.171Z,96448.19
2023-11-09T19:20:12.490Z,96439.19
2023-11-09T19:22:41.715Z,96433.28
2023-11-09T19:25:11.165Z,96437.44
2023-11-09T19:27:39.389Z,96432.47
2023-11-09T19:30:09.607Z,96427.72
2023-11-09T19:32:39.172Z,96428.28
2023-11-09T19:35:08.311Z,96422.75
2023-11-09T19:37:36.598Z,96431.56
2023-11-09T19:40:05.744Z,96435.97
2023-11-09T19:42:34.174Z,96438.53
2023-11-09T19:45:02.377Z,96439.38
2023-11-09T19:47:30.541Z,96435.56
2023-11-09T19:50:00.056Z,96447.19
2023-11-09T19:52:28.159Z,96435.44
2023-11-09T19:54:56.211Z,96442.53
2023-11-09T19:57:24.352Z,96461.38
2023-11-09T19:59:52.465Z,96452.31
2023-11-09T20:02:21.525Z,96455.97
2023-11-09T20:04:49.596Z,96455.25
2023-11-09T20:07:19.080Z,96455.13
2023-11-09T20:09:47.182Z,96457.72
2023-11-09T20:12:16.299Z,96446.78
2023-11-09T20:14:44.483Z,96452.91
2023-11-09T20:17:12.593Z,96449.19
2023-11-09T20:19:40.657Z,96439.28
2023-11-09T20:22:08.710Z,96441.84
2023-11-09T20:24:38.158Z,96444.44
2023-11-09T20:27:06.614Z,96447.94
2023-11-09T20:29:35.947Z,96436.22
2023-11-09T20:32:04.035Z,96429.66
2023-11-09T20:34:32.813Z,96444.00
2023-11-09T20:37:00.959Z,96426.88
2023-11-09T20:39:29.121Z,96420.63
2023-11-09T20:41:59.145Z,96429.41
2023-11-09T20:44:27.392Z,96423.88
2023-11-09T20:46:57.241Z,96415.66
2023-11-09T20:49:25.400Z,96419.06
2023-11-09T20:51:53.481Z,96422.63
2023-11-09T20:54:21.585Z,96415.41
2023-11-09T20:56:49.658Z,96420.78
2023-11-09T20:59:19.142Z,96414.41
2023-11-09T21:01:47.334Z,96413.44
2023-11-09T21:04:15.641Z,96415.97
2023-11-09T21:06:43.875Z,96420.41
2023-11-09T21:09:12.014Z,96418.53
2023-11-09T21:11:40.097Z,96422.94
2023-11-09T21:14:11.763Z,96420.25
2023-11-09T21:16:41.260Z,96419.25
2023-11-09T21:19:09.298Z,96414.72
2023-11-09T21:21:37.404Z,96413.75
2023-11-09T21:24:07.394Z,96412.03
2023-11-09T21:26:35.525Z,96411.06
2023-11-09T21:29:03.692Z,96407.50
2023-11-09T21:31:33.170Z,96405.78
2023-11-09T21:34:02.846Z,96391.47
2023-11-09T21:36:31.089Z,96392.31
2023-11-09T21:39:00.553Z,96395.16
2023-11-09T21:41:28.724Z,96392.59
2023-11-09T21:43:58.773Z,96395.28
2023-11-09T21:46:26.872Z,96391.88
2023-11-09T21:48:56.819Z,96381.25
2023-11-09T21:51:26.850Z,96381.34
2023-11-09T21:53:54.928Z,96369.75
2023-11-09T21:56:23.050Z,96377.94
2023-11-09T21:58:51.337Z,96387.03
2023-11-09T22:01:19.445Z,96380.94
2023-11-09T22:03:47.680Z,96381.06
2023-11-09T22:06:15.812Z,96382.19
2023-11-09T22:08:45.764Z,96385.84
2023-11-09T22:11:14.244Z,96396.91
2023-11-09T22:13:42.388Z,96388.84
2023-11-09T22:16:11.873Z,96392.66
2023-11-09T22:18:40.723Z,96388.41
2023-11-09T22:21:10.589Z,96399.28
2023-11-09T22:23:39.286Z,96398.47
2023-11-09T22:26:08.749Z,96388.81
2023-11-09T22:28:36.799Z,96387.94
2023-11-09T22:31:04.976Z,96386.25
2023-11-09T22:33:33.287Z,96391.75
2023-11-09T22:36:01.414Z,96400.69
2023-11-09T22:38:29.486Z,96399.97
2023-11-09T22:40:57.577Z,96399.09
2023-11-09T22:43:27.011Z,96396.56
2023-11-09T22:45:55.076Z,96400.25
2023-11-09T22:48:23.164Z,96405.63
2023-11-09T22:50:51.337Z,96401.38
2023-11-09T22:53:19.468Z,96403.19
2023-11-09T22:55:47.524Z,96391.56
2023-11-09T22:58:15.591Z,96397.09
2023-11-09T23:00:51.851Z,96400.78
2023-11-09T23:03:21.718Z,96393.69
2023-11-09T23:05:49.984Z,96403.59
2023-11-09T23:08:18.097Z,96392.09
2023-11-09T23:10:46.509Z,96391.13
2023-11-09T23:13:14.667Z,96390.41
2023-11-09T23:15:44.177Z,96387.72
2023-11-09T23:18:16.244Z,96386.00
2023-11-09T23:20:45.301Z,96392.25
2023-11-09T23:23:14.675Z,96387.97
2023-11-09T23:25:42.827Z,96382.59
2023-11-09T23:28:12.723Z,96388.97
2023-11-09T23:30:43.113Z,96390.81
2023-11-09T23:33:12.758Z,96386.41
2023-11-09T23:35:40.873Z,96393.50
2023-11-09T23:38:08.921Z,96381.03
2023-11-09T23:40:37.059Z,96384.69
2023-11-09T23:43:05.120Z,96390.09
2023-11-09T23:45:33.993Z,96373.06
2023-11-09T23:48:12.141Z,96377.63
2023-11-09T23:50:42.771Z,96373.22
2023-11-09T23:53:10.873Z,96370.66
2023-11-09T23:55:39.152Z,96371.53
2023-11-09T23:58:09.067Z,96370.66
